sensor_id;sensor_type;location;lat;lon;timestamp;temperature;humidity
33109;HTU21D;19481;51.118;6.940;2023-07-22T00:04:45;13.73;51.62
33109;HTU21D;19481;51.118;6.940;2023-07-22T00:09:48;13.58;52.07
33109;HTU21D;19481;51.118;6.940;2023-07-22T00:14:50;13.62;52.07
33109;HTU21D;19481;51.118;6.940;2023-07-22T00:19:52;13.56;52.17
33109;HTU21D;19481;51.118;6.940;2023-07-22T00:24:55;13.51;52.43
33109;HTU21D;19481;51.118;6.940;2023-07-22T00:30:00;13.38;52.97
33109;HTU21D;19481;51.118;6.940;2023-07-22T00:35:01;13.46;52.81
33109;HTU21D;19481;51.118;6.940;2023-07-22T00:40:05;13.53;52.51
33109;HTU21D;19481;51.118;6.940;2023-07-22T00:45:12;13.61;52.42
33109;HTU21D;19481;51.118;6.940;2023-07-22T00:50:14;13.58;52.61
33109;HTU21D;19481;51.118;6.940;2023-07-22T00:55:17;13.58;52.65
33109;HTU21D;19481;51.118;6.940;2023-07-22T01:00:18;13.64;52.54
33109;HTU21D;19481;51.118;6.940;2023-07-22T01:05:20;13.67;52.49
33109;HTU21D;19481;51.118;6.940;2023-07-22T01:10:23;13.71;52.53
33109;HTU21D;19481;51.118;6.940;2023-07-22T01:15:26;13.80;52.36
33109;HTU21D;19481;51.118;6.940;2023-07-22T01:20:29;13.84;52.30
33109;HTU21D;19481;51.118;6.940;2023-07-22T01:25:32;13.83;52.72
33109;HTU21D;19481;51.118;6.940;2023-07-22T01:30:34;13.80;52.73
33109;HTU21D;19481;51.118;6.940;2023-07-22T01:35:35;13.82;52.71
33109;HTU21D;19481;51.118;6.940;2023-07-22T01:40:38;13.85;52.65
33109;HTU21D;19481;51.118;6.940;2023-07-22T01:45:40;13.89;52.70
33109;HTU21D;19481;51.118;6.940;2023-07-22T01:50:42;13.95;52.56
33109;HTU21D;19481;51.118;6.940;2023-07-22T01:55:45;13.88;52.94
33109;HTU21D;19481;51.118;6.940;2023-07-22T02:00:49;13.86;52.97
33109;HTU21D;19481;51.118;6.940;2023-07-22T02:05:51;13.79;53.28
33109;HTU21D;19481;51.118;6.940;2023-07-22T02:10:54;13.74;53.42
33109;HTU21D;19481;51.118;6.940;2023-07-22T02:15:55;13.69;53.48
33109;HTU21D;19481;51.118;6.940;2023-07-22T02:20:57;13.65;53.62
33109;HTU21D;19481;51.118;6.940;2023-07-22T02:26:01;13.54;53.90
33109;HTU21D;19481;51.118;6.940;2023-07-22T02:31:02;13.48;54.17
33109;HTU21D;19481;51.118;6.940;2023-07-22T02:36:06;13.41;55.82
33109;HTU21D;19481;51.118;6.940;2023-07-22T02:41:10;13.44;56.35
33109;HTU21D;19481;51.118;6.940;2023-07-22T02:46:11;13.48;54.20
33109;HTU21D;19481;51.118;6.940;2023-07-22T02:51:13;13.52;54.18
33109;HTU21D;19481;51.118;6.940;2023-07-22T02:56:16;13.54;54.19
33109;HTU21D;19481;51.118;6.940;2023-07-22T03:01:18;13.58;54.29
33109;HTU21D;19481;51.118;6.940;2023-07-22T03:06:19;13.58;54.40
33109;HTU21D;19481;51.118;6.940;2023-07-22T03:11:22;13.55;54.56
33109;HTU21D;19481;51.118;6.940;2023-07-22T03:16:25;13.59;54.74
33109;HTU21D;19481;51.118;6.940;2023-07-22T03:21:27;13.63;54.59
33109;HTU21D;19481;51.118;6.940;2023-07-22T03:26:31;13.65;54.61
33109;HTU21D;19481;51.118;6.940;2023-07-22T03:31:32;13.68;54.74
33109;HTU21D;19481;51.118;6.940;2023-07-22T03:36:34;13.64;55.03
33109;HTU21D;19481;51.118;6.940;2023-07-22T03:41:37;13.63;55.05
33109;HTU21D;19481;51.118;6.940;2023-07-22T03:46:38;13.55;55.42
33109;HTU21D;19481;51.118;6.940;2023-07-22T03:51:40;13.49;55.59
33109;HTU21D;19481;51.118;6.940;2023-07-22T03:56:43;13.51;55.63
33109;HTU21D;19481;51.118;6.940;2023-07-22T04:01:45;13.52;56.98
33109;HTU21D;19481;51.118;6.940;2023-07-22T04:06:47;13.50;55.79
33109;HTU21D;19481;51.118;6.940;2023-07-22T04:11:50;13.49;56.10
33109;HTU21D;19481;51.118;6.940;2023-07-22T04:16:51;13.49;56.04
33109;HTU21D;19481;51.118;6.940;2023-07-22T04:21:53;13.56;56.15
33109;HTU21D;19481;51.118;6.940;2023-07-22T04:26:56;13.61;56.00
33109;HTU21D;19481;51.118;6.940;2023-07-22T04:31:58;13.71;55.93
33109;HTU21D;19481;51.118;6.940;2023-07-22T04:37:00;13.77;55.87
33109;HTU21D;19481;51.118;6.940;2023-07-22T04:42:03;13.83;55.90
33109;HTU21D;19481;51.118;6.940;2023-07-22T04:47:05;13.95;55.74
33109;HTU21D;19481;51.118;6.940;2023-07-22T04:52:07;13.94;56.51
33109;HTU21D;19481;51.118;6.940;2023-07-22T04:57:10;13.96;56.47
33109;HTU21D;19481;51.118;6.940;2023-07-22T05:02:12;14.04;56.16
33109;HTU21D;19481;51.118;6.940;2023-07-22T05:07:14;14.12;56.06
33109;HTU21D;19481;51.118;6.940;2023-07-22T05:12:17;14.20;56.20
33109;HTU21D;19481;51.118;6.940;2023-07-22T05:17:18;14.25;56.17
33109;HTU21D;19481;51.118;6.940;2023-07-22T05:22:20;14.36;56.07
33109;HTU21D;19481;51.118;6.940;2023-07-22T05:27:24;14.74;55.18
33109;HTU21D;19481;51.118;6.940;2023-07-22T05:32:25;14.87;57.06
33109;HTU21D;19481;51.118;6.940;2023-07-22T05:37:29;15.29;54.55
33109;HTU21D;19481;51.118;6.940;2023-07-22T05:42:32;15.80;53.56
33109;HTU21D;19481;51.118;6.940;2023-07-22T05:47:34;16.61;52.27
33109;HTU21D;19481;51.118;6.940;2023-07-22T05:52:35;16.92;52.53
33109;HTU21D;19481;51.118;6.940;2023-07-22T05:57:39;16.98;53.54
33109;HTU21D;19481;51.118;6.940;2023-07-22T06:02:40;17.19;52.88
33109;HTU21D;19481;51.118;6.940;2023-07-22T06:07:42;17.30;52.88
33109;HTU21D;19481;51.118;6.940;2023-07-22T06:12:46;17.96;51.88
33109;HTU21D;19481;51.118;6.940;2023-07-22T06:17:47;19.31;48.55
33109;HTU21D;19481;51.118;6.940;2023-07-22T06:22:49;18.15;52.88
33109;HTU21D;19481;51.118;6.940;2023-07-22T06:27:52;18.88;50.62
33109;HTU21D;19481;51.118;6.940;2023-07-22T06:32:54;19.30;50.50
33109;HTU21D;19481;51.118;6.940;2023-07-22T06:37:56;19.72;49.95
33109;HTU21D;19481;51.118;6.940;2023-07-22T06:42:59;19.91;49.63
33109;HTU21D;19481;51.118;6.940;2023-07-22T06:48:00;20.18;48.79
33109;HTU21D;19481;51.118;6.940;2023-07-22T06:53:02;20.71;48.13
33109;HTU21D;19481;51.118;6.940;2023-07-22T06:58:05;21.82;46.15
33109;HTU21D;19481;51.118;6.940;2023-07-22T07:03:07;20.81;48.93
33109;HTU21D;19481;51.118;6.940;2023-07-22T07:08:08;20.44;49.46
33109;HTU21D;19481;51.118;6.940;2023-07-22T07:13:12;19.62;49.89
33109;HTU21D;19481;51.118;6.940;2023-07-22T07:18:14;19.38;49.41
33109;HTU21D;19481;51.118;6.940;2023-07-22T07:23:16;19.14;49.33
33109;HTU21D;19481;51.118;6.940;2023-07-22T07:28:19;18.96;48.90
33109;HTU21D;19481;51.118;6.940;2023-07-22T07:33:21;19.14;47.96
33109;HTU21D;19481;51.118;6.940;2023-07-22T07:38:22;19.98;45.90
33109;HTU21D;19481;51.118;6.940;2023-07-22T07:43:26;21.38;42.87
33109;HTU21D;19481;51.118;6.940;2023-07-22T07:48:27;22.12;42.62
33109;HTU21D;19481;51.118;6.940;2023-07-22T07:53:29;20.81;46.22
33109;HTU21D;19481;51.118;6.940;2023-07-22T07:58:32;20.71;44.83
33109;HTU21D;19481;51.118;6.940;2023-07-22T08:03:35;20.77;45.67
33109;HTU21D;19481;51.118;6.940;2023-07-22T08:08:37;20.63;45.90
33109;HTU21D;19481;51.118;6.940;2023-07-22T08:13:41;20.69;44.72
33109;HTU21D;19481;51.118;6.940;2023-07-22T08:18:43;20.96;44.81
33109;HTU21D;19481;51.118;6.940;2023-07-22T08:23:47;21.92;43.04
33109;HTU21D;19481;51.118;6.940;2023-07-22T08:28:50;23.67;40.07
33109;HTU21D;19481;51.118;6.940;2023-07-22T08:33:51;24.82;39.24
33109;HTU21D;19481;51.118;6.940;2023-07-22T08:38:53;24.73;40.64
33109;HTU21D;19481;51.118;6.940;2023-07-22T08:43:59;26.51;36.01
33109;HTU21D;19481;51.118;6.940;2023-07-22T08:49:02;26.64;38.92
33109;HTU21D;19481;51.118;6.940;2023-07-22T08:54:06;27.25;38.08
33109;HTU21D;19481;51.118;6.940;2023-07-22T08:59:11;27.38;38.54
33109;HTU21D;19481;51.118;6.940;2023-07-22T09:04:14;26.12;40.85
33109;HTU21D;19481;51.118;6.940;2023-07-22T09:09:16;26.37;39.82
33109;HTU21D;19481;51.118;6.940;2023-07-22T09:14:20;25.98;40.30
33109;HTU21D;19481;51.118;6.940;2023-07-22T09:19:22;26.22;39.33
33109;HTU21D;19481;51.118;6.940;2023-07-22T09:24:25;25.12;38.38
33109;HTU21D;19481;51.118;6.940;2023-07-22T09:29:35;25.28;34.66
33109;HTU21D;19481;51.118;6.940;2023-07-22T09:34:36;24.35;40.66
33109;HTU21D;19481;51.118;6.940;2023-07-22T09:39:38;25.49;37.56
33109;HTU21D;19481;51.118;6.940;2023-07-22T09:44:43;25.53;37.15
33109;HTU21D;19481;51.118;6.940;2023-07-22T09:49:45;25.91;36.98
33109;HTU21D;19481;51.118;6.940;2023-07-22T09:54:47;26.16;36.92
33109;HTU21D;19481;51.118;6.940;2023-07-22T09:59:52;26.15;36.21
33109;HTU21D;19481;51.118;6.940;2023-07-22T10:04:56;25.96;36.50
33109;HTU21D;19481;51.118;6.940;2023-07-22T10:10:01;26.63;34.95
33109;HTU21D;19481;51.118;6.940;2023-07-22T10:15:05;25.95;35.76
33109;HTU21D;19481;51.118;6.940;2023-07-22T10:20:08;26.71;34.32
33109;HTU21D;19481;51.118;6.940;2023-07-22T10:25:16;26.46;35.01
33109;HTU21D;19481;51.118;6.940;2023-07-22T10:30:20;26.16;34.95
33109;HTU21D;19481;51.118;6.940;2023-07-22T10:35:23;26.20;33.12
33109;HTU21D;19481;51.118;6.940;2023-07-22T10:40:44;26.79;25.04
33109;HTU21D;19481;51.118;6.940;2023-07-22T10:45:51;26.96;30.47
33109;HTU21D;19481;51.118;6.940;2023-07-22T10:50:58;27.52;31.88
33109;HTU21D;19481;51.118;6.940;2023-07-22T10:56:07;27.23;31.41
33109;HTU21D;19481;51.118;6.940;2023-07-22T11:01:23;27.23;26.41
33109;HTU21D;19481;51.118;6.940;2023-07-22T11:06:26;27.01;32.77
33109;HTU21D;19481;51.118;6.940;2023-07-22T11:11:35;26.24;31.24
33109;HTU21D;19481;51.118;6.940;2023-07-22T11:16:39;26.79;31.45
33109;HTU21D;19481;51.118;6.940;2023-07-22T11:21:41;26.95;32.11
33109;HTU21D;19481;51.118;6.940;2023-07-22T11:26:44;27.09;31.59
33109;HTU21D;19481;51.118;6.940;2023-07-22T11:31:48;27.86;26.81
33109;HTU21D;19481;51.118;6.940;2023-07-22T11:36:52;27.91;27.78
33109;HTU21D;19481;51.118;6.940;2023-07-22T11:41:53;27.68;30.81
33109;HTU21D;19481;51.118;6.940;2023-07-22T11:46:58;27.65;30.29
33109;HTU21D;19481;51.118;6.940;2023-07-22T11:52:01;27.43;30.47
33109;HTU21D;19481;51.118;6.940;2023-07-22T11:57:10;28.04;21.43
33109;HTU21D;19481;51.118;6.940;2023-07-22T12:02:15;27.88;27.01
33109;HTU21D;19481;51.118;6.940;2023-07-22T12:07:27;28.03;24.19
33109;HTU21D;19481;51.118;6.940;2023-07-22T12:12:32;27.74;27.51
33109;HTU21D;19481;51.118;6.940;2023-07-22T12:17:46;28.21;19.10
33109;HTU21D;19481;51.118;6.940;2023-07-22T12:22:48;27.90;28.31
33109;HTU21D;19481;51.118;6.940;2023-07-22T12:27:49;28.82;26.42
33109;HTU21D;19481;51.118;6.940;2023-07-22T12:32:52;28.37;24.82
33109;HTU21D;19481;51.118;6.940;2023-07-22T12:37:54;28.72;26.46
33109;HTU21D;19481;51.118;6.940;2023-07-22T12:42:56;29.07;25.99
33109;HTU21D;19481;51.118;6.940;2023-07-22T12:47:59;28.49;26.52
33109;HTU21D;19481;51.118;6.940;2023-07-22T12:53:00;28.94;25.60
33109;HTU21D;19481;51.118;6.940;2023-07-22T12:58:02;28.56;26.49
33109;HTU21D;19481;51.118;6.940;2023-07-22T13:03:05;28.50;24.66
33109;HTU21D;19481;51.118;6.940;2023-07-22T13:08:07;27.52;27.45
33109;HTU21D;19481;51.118;6.940;2023-07-22T13:13:08;27.90;24.49
33109;HTU21D;19481;51.118;6.940;2023-07-22T13:18:12;27.45;26.06
33109;HTU21D;19481;51.118;6.940;2023-07-22T13:23:17;27.72;25.72
33109;HTU21D;19481;51.118;6.940;2023-07-22T13:28:18;28.24;24.85
33109;HTU21D;19481;51.118;6.940;2023-07-22T13:33:21;28.01;25.24
33109;HTU21D;19481;51.118;6.940;2023-07-22T13:38:23;27.08;26.65
33109;HTU21D;19481;51.118;6.940;2023-07-22T13:43:24;27.25;26.00
33109;HTU21D;19481;51.118;6.940;2023-07-22T13:48:29;27.68;25.00
33109;HTU21D;19481;51.118;6.940;2023-07-22T13:53:30;27.16;25.95
33109;HTU21D;19481;51.118;6.940;2023-07-22T13:58:32;27.19;25.66
33109;HTU21D;19481;51.118;6.940;2023-07-22T14:03:35;27.40;24.66
33109;HTU21D;19481;51.118;6.940;2023-07-22T14:08:36;27.54;23.69
33109;HTU21D;19481;51.118;6.940;2023-07-22T14:13:39;27.73;24.59
33109;HTU21D;19481;51.118;6.940;2023-07-22T14:18:42;27.76;24.40
33109;HTU21D;19481;51.118;6.940;2023-07-22T14:23:43;27.81;24.82
33109;HTU21D;19481;51.118;6.940;2023-07-22T14:28:45;27.57;25.08
33109;HTU21D;19481;51.118;6.940;2023-07-22T14:33:48;27.59;24.82
33109;HTU21D;19481;51.118;6.940;2023-07-22T14:38:50;27.31;25.41
33109;HTU21D;19481;51.118;6.940;2023-07-22T14:43:52;27.51;25.12
33109;HTU21D;19481;51.118;6.940;2023-07-22T14:48:55;27.12;25.74
33109;HTU21D;19481;51.118;6.940;2023-07-22T14:53:56;27.09;25.68
33109;HTU21D;19481;51.118;6.940;2023-07-22T14:58:58;27.16;25.41
33109;HTU21D;19481;51.118;6.940;2023-07-22T15:04:01;27.27;25.00
33109;HTU21D;19481;51.118;6.940;2023-07-22T15:09:03;27.05;25.43
33109;HTU21D;19481;51.118;6.940;2023-07-22T15:14:07;27.13;25.60
33109;HTU21D;19481;51.118;6.940;2023-07-22T15:19:10;27.26;25.39
33109;HTU21D;19481;51.118;6.940;2023-07-22T15:24:11;27.04;25.69
33109;HTU21D;19481;51.118;6.940;2023-07-22T15:29:13;26.69;26.32
33109;HTU21D;19481;51.118;6.940;2023-07-22T15:34:16;26.36;25.36
33109;HTU21D;19481;51.118;6.940;2023-07-22T15:39:17;26.26;26.62
33109;HTU21D;19481;51.118;6.940;2023-07-22T15:44:19;26.72;25.86
33109;HTU21D;19481;51.118;6.940;2023-07-22T15:49:23;26.54;26.33
33109;HTU21D;19481;51.118;6.940;2023-07-22T15:54:25;26.36;26.59
33109;HTU21D;19481;51.118;6.940;2023-07-22T15:59:27;25.89;27.22
33109;HTU21D;19481;51.118;6.940;2023-07-22T16:04:30;26.06;26.71
33109;HTU21D;19481;51.118;6.940;2023-07-22T16:09:31;25.81;27.15
33109;HTU21D;19481;51.118;6.940;2023-07-22T16:14:33;25.71;27.27
33109;HTU21D;19481;51.118;6.940;2023-07-22T16:19:36;25.62;27.29
33109;HTU21D;19481;51.118;6.940;2023-07-22T16:24:38;25.71;27.10
33109;HTU21D;19481;51.118;6.940;2023-07-22T16:29:40;25.51;27.36
33109;HTU21D;19481;51.118;6.940;2023-07-22T16:34:43;25.21;27.49
33109;HTU21D;19481;51.118;6.940;2023-07-22T16:39:45;24.89;28.18
33109;HTU21D;19481;51.118;6.940;2023-07-22T16:44:46;24.57;28.52
33109;HTU21D;19481;51.118;6.940;2023-07-22T16:49:49;24.54;28.42
33109;HTU21D;19481;51.118;6.940;2023-07-22T16:54:52;24.58;28.26
33109;HTU21D;19481;51.118;6.940;2023-07-22T16:59:54;24.64;28.10
33109;HTU21D;19481;51.118;6.940;2023-07-22T17:04:57;24.64;28.06
33109;HTU21D;19481;51.118;6.940;2023-07-22T17:09:59;24.62;28.11
33109;HTU21D;19481;51.118;6.940;2023-07-22T17:15:01;24.26;28.75
33109;HTU21D;19481;51.118;6.940;2023-07-22T17:20:05;24.18;28.60
33109;HTU21D;19481;51.118;6.940;2023-07-22T17:25:07;23.99;29.08
33109;HTU21D;19481;51.118;6.940;2023-07-22T17:30:10;23.89;29.15
33109;HTU21D;19481;51.118;6.940;2023-07-22T17:35:13;23.82;29.26
33109;HTU21D;19481;51.118;6.940;2023-07-22T17:40:15;23.65;29.56
33109;HTU21D;19481;51.118;6.940;2023-07-22T17:45:18;23.58;29.65
33109;HTU21D;19481;51.118;6.940;2023-07-22T17:50:21;23.39;29.95
33109;HTU21D;19481;51.118;6.940;2023-07-22T17:55:23;23.39;29.90
33109;HTU21D;19481;51.118;6.940;2023-07-22T18:00:24;23.36;29.99
33109;HTU21D;19481;51.118;6.940;2023-07-22T18:05:27;23.25;30.20
33109;HTU21D;19481;51.118;6.940;2023-07-22T18:10:30;23.12;30.45
33109;HTU21D;19481;51.118;6.940;2023-07-22T18:15:32;23.00;30.71
33109;HTU21D;19481;51.118;6.940;2023-07-22T18:20:35;22.91;30.96
33109;HTU21D;19481;51.118;6.940;2023-07-22T18:25:36;22.85;31.12
33109;HTU21D;19481;51.118;6.940;2023-07-22T18:30:40;22.77;31.35
33109;HTU21D;19481;51.118;6.940;2023-07-22T18:35:48;22.61;32.41
33109;HTU21D;19481;51.118;6.940;2023-07-22T18:40:49;22.60;31.54
33109;HTU21D;19481;51.118;6.940;2023-07-22T18:45:51;22.51;31.71
33109;HTU21D;19481;51.118;6.940;2023-07-22T18:50:57;22.38;32.41
33109;HTU21D;19481;51.118;6.940;2023-07-22T18:55:58;22.32;32.01
33109;HTU21D;19481;51.118;6.940;2023-07-22T19:01:00;22.25;32.17
33109;HTU21D;19481;51.118;6.940;2023-07-22T19:06:03;22.18;32.73
33109;HTU21D;19481;51.118;6.940;2023-07-22T19:11:05;22.17;32.36
33109;HTU21D;19481;51.118;6.940;2023-07-22T19:16:09;22.07;32.61
33109;HTU21D;19481;51.118;6.940;2023-07-22T19:21:12;21.98;32.80
33109;HTU21D;19481;51.118;6.940;2023-07-22T19:26:14;21.89;32.96
33109;HTU21D;19481;51.118;6.940;2023-07-22T19:31:15;21.84;33.07
33109;HTU21D;19481;51.118;6.940;2023-07-22T19:36:19;21.79;33.22
33109;HTU21D;19481;51.118;6.940;2023-07-22T19:41:20;21.72;33.34
33109;HTU21D;19481;51.118;6.940;2023-07-22T19:46:22;21.69;33.41
33109;HTU21D;19481;51.118;6.940;2023-07-22T19:51:25;21.65;33.58
33109;HTU21D;19481;51.118;6.940;2023-07-22T19:56:27;21.61;33.70
33109;HTU21D;19481;51.118;6.940;2023-07-22T20:01:28;21.59;33.88
33109;HTU21D;19481;51.118;6.940;2023-07-22T20:06:31;21.47;34.16
33109;HTU21D;19481;51.118;6.940;2023-07-22T20:11:33;21.44;34.19
33109;HTU21D;19481;51.118;6.940;2023-07-22T20:16:34;21.36;34.37
33109;HTU21D;19481;51.118;6.940;2023-07-22T20:21:37;21.33;34.49
33109;HTU21D;19481;51.118;6.940;2023-07-22T20:26:39;21.27;34.59
33109;HTU21D;19481;51.118;6.940;2023-07-22T20:31:40;21.29;34.58
33109;HTU21D;19481;51.118;6.940;2023-07-22T20:36:43;21.25;34.70
33109;HTU21D;19481;51.118;6.940;2023-07-22T20:41:45;21.22;34.82
33109;HTU21D;19481;51.118;6.940;2023-07-22T20:46:47;21.21;34.94
33109;HTU21D;19481;51.118;6.940;2023-07-22T20:51:49;21.14;35.17
33109;HTU21D;19481;51.118;6.940;2023-07-22T20:56:51;21.13;35.21
33109;HTU21D;19481;51.118;6.940;2023-07-22T21:01:53;21.09;35.37
33109;HTU21D;19481;51.118;6.940;2023-07-22T21:06:56;21.10;35.35
33109;HTU21D;19481;51.118;6.940;2023-07-22T21:11:57;21.06;35.47
33109;HTU21D;19481;51.118;6.940;2023-07-22T21:17:00;21.03;35.54
33109;HTU21D;19481;51.118;6.940;2023-07-22T21:22:04;21.00;35.67
33109;HTU21D;19481;51.118;6.940;2023-07-22T21:27:07;20.94;35.77
33109;HTU21D;19481;51.118;6.940;2023-07-22T21:32:08;20.89;35.92
33109;HTU21D;19481;51.118;6.940;2023-07-22T21:37:11;20.84;36.08
33109;HTU21D;19481;51.118;6.940;2023-07-22T21:42:13;20.81;36.12
33109;HTU21D;19481;51.118;6.940;2023-07-22T21:47:14;20.79;36.18
33109;HTU21D;19481;51.118;6.940;2023-07-22T21:52:17;20.74;36.32
33109;HTU21D;19481;51.118;6.940;2023-07-22T21:57:19;20.71;36.40
33109;HTU21D;19481;51.118;6.940;2023-07-22T22:02:20;20.71;36.40
33109;HTU21D;19481;51.118;6.940;2023-07-22T22:07:23;20.69;36.50
33109;HTU21D;19481;51.118;6.940;2023-07-22T22:12:25;20.66;36.53
33109;HTU21D;19481;51.118;6.940;2023-07-22T22:17:26;20.65;36.68
33109;HTU21D;19481;51.118;6.940;2023-07-22T22:22:29;20.62;36.78
33109;HTU21D;19481;51.118;6.940;2023-07-22T22:27:31;20.56;36.93
33109;HTU21D;19481;51.118;6.940;2023-07-22T22:32:33;20.55;37.11
33109;HTU21D;19481;51.118;6.940;2023-07-22T22:37:36;20.39;37.69
33109;HTU21D;19481;51.118;6.940;2023-07-22T22:42:38;20.25;38.01
33109;HTU21D;19481;51.118;6.940;2023-07-22T22:47:39;20.02;38.56
33109;HTU21D;19481;51.118;6.940;2023-07-22T22:52:42;19.90;38.90
33109;HTU21D;19481;51.118;6.940;2023-07-22T22:57:44;19.77;39.33
33109;HTU21D;19481;51.118;6.940;2023-07-22T23:02:45;19.67;39.71
33109;HTU21D;19481;51.118;6.940;2023-07-22T23:07:49;19.57;41.41
33109;HTU21D;19481;51.118;6.940;2023-07-22T23:12:51;19.45;40.23
33109;HTU21D;19481;51.118;6.940;2023-07-22T23:17:53;19.31;40.77
33109;HTU21D;19481;51.118;6.940;2023-07-22T23:22:56;19.16;41.71
33109;HTU21D;19481;51.118;6.940;2023-07-22T23:27:57;19.08;41.23
33109;HTU21D;19481;51.118;6.940;2023-07-22T23:32:59;18.97;41.65
33109;HTU21D;19481;51.118;6.940;2023-07-22T23:38:02;18.85;42.31
33109;HTU21D;19481;51.118;6.940;2023-07-22T23:43:04;18.71;42.64
33109;HTU21D;19481;51.118;6.940;2023-07-22T23:48:05;18.67;43.00
33109;HTU21D;19481;51.118;6.940;2023-07-22T23:53:08;18.61;43.48
33109;HTU21D;19481;51.118;6.940;2023-07-22T23:58:11;18.56;43.51
